createdAt,value
2022-08-07T00:01:44.419Z,17.80
2022-08-07T00:04:15.403Z,17.80
2022-08-07T00:06:51.329Z,17.80
2022-08-07T00:09:21.202Z,17.70
2022-08-07T00:11:55.459Z,17.70
2022-08-07T00:14:30.972Z,17.70
2022-08-07T00:17:00.265Z,17.70
2022-08-07T00:20:00.173Z,17.60
2022-08-07T00:22:34.474Z,17.60
2022-08-07T00:25:04.358Z,17.60
2022-08-07T00:27:51.852Z,17.50
2022-08-07T00:30:27.009Z,17.50
2022-08-07T00:32:56.116Z,17.60
2022-08-07T00:35:24.033Z,17.50
2022-08-07T00:37:51.849Z,17.50
2022-08-07T00:40:39.522Z,17.60
2022-08-07T00:43:09.924Z,17.60
2022-08-07T00:45:46.597Z,17.60
2022-08-07T00:48:14.634Z,17.60
2022-08-07T00:50:51.286Z,17.60
2022-08-07T00:53:20.351Z,17.50
2022-08-07T00:56:00.415Z,17.50
2022-08-07T00:58:30.279Z,17.50
2022-08-07T01:00:59.510Z,17.50
2022-08-07T01:03:57.126Z,17.50
2022-08-07T01:06:15.787Z,17.50
2022-08-07T01:08:53.508Z,17.50
2022-08-07T01:12:10.184Z,17.40
2022-08-07T01:14:11.025Z,17.40
2022-08-07T01:16:42.966Z,17.40
2022-08-07T01:19:18.211Z,17.40
2022-08-07T01:21:49.897Z,17.40
2022-08-07T01:24:22.239Z,17.40
2022-08-07T01:26:52.127Z,17.30
2022-08-07T01:29:20.451Z,17.30
2022-08-07T01:31:50.093Z,17.30
2022-08-07T01:34:18.889Z,17.30
2022-08-07T01:36:52.952Z,17.20
2022-08-07T01:39:39.583Z,17.20
2022-08-07T01:42:38.687Z,17.20
2022-08-07T01:45:02.044Z,17.20
2022-08-07T01:48:29.482Z,17.10
2022-08-07T01:50:22.714Z,17.20
2022-08-07T01:52:59.644Z,17.10
2022-08-07T01:55:28.227Z,17.10
2022-08-07T01:58:06.743Z,17.10
2022-08-07T02:00:49.314Z,17.00
2022-08-07T02:03:26.258Z,17.00
2022-08-07T02:05:59.762Z,17.00
2022-08-07T02:08:30.684Z,17.00
2022-08-07T02:10:59.500Z,16.90
2022-08-07T02:13:57.533Z,16.90
2022-08-07T02:16:17.885Z,16.80
2022-08-07T02:18:48.532Z,16.80
2022-08-07T02:21:19.423Z,16.70
2022-08-07T02:23:49.290Z,16.70
2022-08-07T02:26:32.446Z,16.70
2022-08-07T02:29:03.312Z,16.60
2022-08-07T02:31:32.757Z,16.60
2022-08-07T02:34:02.871Z,16.60
2022-08-07T02:36:33.697Z,16.50
2022-08-07T02:39:16.243Z,16.50
2022-08-07T02:41:47.332Z,16.50
2022-08-07T02:44:22.186Z,16.50
2022-08-07T02:46:55.526Z,16.40
2022-08-07T02:49:55.631Z,16.40
2022-08-07T02:52:15.058Z,16.40
2022-08-07T02:54:44.755Z,16.40
2022-08-07T02:57:16.831Z,16.30
2022-08-07T02:59:55.125Z,16.30
2022-08-07T03:02:29.372Z,16.20
2022-08-07T03:04:57.570Z,16.20
2022-08-07T03:07:58.844Z,16.20
2022-08-07T03:10:14.691Z,16.20
2022-08-07T03:12:42.592Z,16.20
2022-08-07T03:15:12.134Z,16.20
2022-08-07T03:17:53.015Z,16.20
2022-08-07T03:20:22.705Z,16.20
2022-08-07T03:22:51.388Z,16.20
2022-08-07T03:25:21.181Z,16.20
2022-08-07T03:28:09.057Z,16.20
2022-08-07T03:30:38.594Z,16.20
2022-08-07T03:33:08.545Z,16.20
2022-08-07T03:35:50.053Z,16.10
2022-08-07T03:38:20.911Z,16.10
2022-08-07T03:40:57.494Z,16.10
2022-08-07T03:43:26.616Z,16.10
2022-08-07T03:45:54.656Z,16.10
2022-08-07T03:48:22.531Z,16.10
2022-08-07T03:50:55.992Z,16.10
2022-08-07T03:53:30.227Z,16.10
2022-08-07T03:56:17.111Z,16.00
2022-08-07T03:59:08.513Z,16.00
2022-08-07T04:01:46.057Z,16.00
2022-08-07T04:04:17.349Z,16.00
2022-08-07T04:06:45.383Z,16.00
2022-08-07T04:09:15.733Z,15.90
2022-08-07T04:12:26.287Z,15.90
2022-08-07T04:14:38.799Z,15.90
2022-08-07T04:17:20.565Z,15.90
2022-08-07T04:19:52.254Z,15.90
2022-08-07T04:22:29.091Z,15.90
2022-08-07T04:24:58.518Z,15.90
2022-08-07T04:27:27.840Z,15.90
2022-08-07T04:30:01.146Z,15.90
2022-08-07T04:32:34.546Z,15.80
2022-08-07T04:35:03.987Z,15.90
2022-08-07T04:37:34.459Z,15.90
2022-08-07T04:40:22.386Z,15.90
2022-08-07T04:43:01.649Z,15.90
2022-08-07T04:45:52.246Z,16.00
2022-08-07T04:48:27.680Z,16.00
2022-08-07T04:51:00.879Z,16.00
2022-08-07T04:54:01.311Z,16.10
2022-08-07T04:58:12.437Z,16.10
2022-08-07T05:00:10.653Z,16.10
2022-08-07T05:02:08.893Z,16.10
2022-08-07T05:04:50.323Z,16.20
2022-08-07T05:07:21.015Z,16.30
2022-08-07T05:09:56.796Z,16.40
2022-08-07T05:12:30.357Z,16.50
2022-08-07T05:15:04.302Z,16.60
2022-08-07T05:17:50.969Z,16.70
2022-08-07T05:20:24.914Z,16.70
2022-08-07T05:22:56.009Z,16.90
2022-08-07T05:25:36.689Z,17.00
2022-08-07T05:28:20.203Z,17.10
2022-08-07T05:30:52.486Z,17.20
2022-08-07T05:33:21.562Z,17.40
2022-08-07T05:35:50.625Z,17.50
2022-08-07T05:39:01.045Z,17.50
2022-08-07T05:41:14.504Z,17.60
2022-08-07T05:44:07.820Z,17.70
2022-08-07T05:46:37.552Z,17.80
2022-08-07T05:49:11.606Z,17.90
2022-08-07T05:51:40.723Z,18.00
2022-08-07T05:54:29.764Z,18.10
2022-08-07T05:56:58.963Z,18.20
2022-08-07T05:59:27.508Z,18.30
2022-08-07T06:01:57.885Z,18.40
2022-08-07T06:04:30.182Z,18.50
2022-08-07T06:07:03.610Z,18.60
2022-08-07T06:10:04.095Z,18.70
2022-08-07T06:12:21.112Z,18.70
2022-08-07T06:15:05.199Z,18.90
2022-08-07T06:17:37.626Z,19.00
2022-08-07T06:20:12.638Z,19.00
2022-08-07T06:23:02.482Z,19.10
2022-08-07T06:25:54.290Z,19.10
2022-08-07T06:28:27.701Z,19.10
2022-08-07T06:30:56.115Z,19.20
2022-08-07T06:33:25.369Z,19.30
2022-08-07T06:36:12.082Z,19.40
2022-08-07T06:38:51.669Z,19.50
2022-08-07T06:42:00.488Z,19.60
2022-08-07T06:44:19.520Z,19.50
2022-08-07T06:46:53.522Z,19.60
2022-08-07T06:49:50.984Z,19.70
2022-08-07T06:52:31.410Z,19.80
2022-08-07T06:55:33.672Z,20.00
2022-08-07T06:57:56.948Z,20.00
2022-08-07T07:00:25.664Z,20.00
2022-08-07T07:02:58.197Z,20.10
2022-08-07T07:06:02.762Z,20.30
2022-08-07T07:08:26.434Z,20.40
2022-08-07T07:10:57.319Z,20.40
2022-08-07T07:13:43.520Z,20.50
2022-08-07T07:16:19.779Z,20.40
2022-08-07T07:18:50.811Z,20.40
2022-08-07T07:21:21.766Z,20.40
2022-08-07T07:24:08.376Z,20.50
2022-08-07T07:26:40.672Z,20.50
2022-08-07T07:29:38.693Z,20.60
2022-08-07T07:32:00.674Z,20.70
2022-08-07T07:34:31.893Z,20.90
2022-08-07T07:37:14.777Z,21.10
2022-08-07T07:39:54.302Z,21.10
2022-08-07T07:42:33.049Z,21.20
2022-08-07T07:45:01.743Z,21.40
2022-08-07T07:47:42.969Z,21.30
2022-08-07T07:50:33.456Z,21.20
2022-08-07T07:53:20.132Z,21.30
2022-08-07T07:55:58.006Z,21.40
2022-08-07T07:58:30.367Z,21.60
2022-08-07T08:02:01.634Z,21.90
2022-08-07T08:04:09.894Z,21.70
2022-08-07T08:06:39.512Z,21.70
2022-08-07T08:09:09.758Z,21.90
2022-08-07T08:11:59.517Z,22.20
2022-08-07T08:14:29.156Z,22.40
2022-08-07T08:16:57.728Z,22.50
2022-08-07T08:20:19.557Z,22.60
2022-08-07T08:23:08.331Z,22.70
2022-08-07T08:25:58.194Z,22.70
2022-08-07T08:28:38.172Z,22.80
2022-08-07T08:31:08.646Z,22.90
2022-08-07T08:33:49.621Z,23.00
2022-08-07T08:36:30.118Z,23.30
2022-08-07T08:39:01.892Z,23.40
2022-08-07T08:41:56.697Z,23.40
2022-08-07T08:44:29.709Z,23.50
2022-08-07T08:47:03.979Z,23.60
2022-08-07T08:49:46.389Z,23.60
2022-08-07T08:52:19.129Z,23.70
2022-08-07T08:54:50.206Z,23.60
2022-08-07T08:57:24.968Z,23.60
2022-08-07T08:59:57.729Z,23.80
2022-08-07T09:02:36.402Z,24.10
2022-08-07T09:05:14.907Z,24.40
2022-08-07T09:07:57.706Z,24.60
2022-08-07T09:10:28.372Z,24.60
2022-08-07T09:13:02.571Z,24.60
2022-08-07T09:16:24.320Z,24.70
2022-08-07T09:18:37.278Z,24.50
2022-08-07T09:21:13.743Z,24.70
2022-08-07T09:24:31.271Z,25.10
2022-08-07T09:26:56.983Z,25.00
2022-08-07T09:30:03.417Z,25.20
2022-08-07T09:32:23.692Z,25.30
2022-08-07T09:34:59.995Z,25.30
2022-08-07T09:37:48.156Z,25.60
2022-08-07T09:40:24.799Z,25.90
2022-08-07T09:42:57.991Z,26.20
2022-08-07T09:47:51.359Z,26.20
2022-08-07T09:49:02.255Z,26.20
2022-08-07T09:52:15.509Z,26.60
2022-08-07T09:54:29.548Z,26.70
2022-08-07T09:57:13.687Z,26.50
2022-08-07T10:00:01.223Z,26.40
2022-08-07T10:02:54.930Z,26.60
2022-08-07T10:05:59.085Z,26.50
2022-08-07T10:08:36.859Z,26.80
2022-08-07T10:12:00.592Z,27.00
2022-08-07T10:14:02.479Z,27.50
2022-08-07T10:16:36.407Z,27.70
2022-08-07T10:19:30.751Z,27.90
2022-08-07T10:22:15.647Z,27.80
2022-08-07T10:24:52.659Z,27.90
2022-08-07T10:27:30.277Z,27.70
2022-08-07T10:30:15.950Z,27.70
2022-08-07T10:32:59.599Z,28.20
2022-08-07T10:35:53.521Z,28.10
2022-08-07T10:38:35.914Z,28.00
2022-08-07T10:41:54.724Z,27.90
2022-08-07T10:44:08.654Z,28.20
2022-08-07T10:46:40.102Z,28.50
2022-08-07T10:49:14.292Z,28.80
2022-08-07T10:52:02.174Z,28.80
2022-08-07T10:54:42.346Z,29.30
2022-08-07T10:57:34.251Z,29.30
2022-08-07T11:00:09.527Z,29.30
2022-08-07T11:02:59.735Z,29.40
2022-08-07T11:05:48.644Z,29.20
2022-08-07T11:08:22.611Z,29.10
2022-08-07T11:11:00.305Z,29.00
2022-08-07T11:14:42.522Z,28.90
2022-08-07T11:16:21.517Z,29.00
2022-08-07T11:19:03.087Z,29.30
2022-08-07T11:21:40.726Z,29.40
2022-08-07T11:24:16.208Z,29.30
2022-08-07T11:26:50.323Z,29.20
2022-08-07T11:29:42.168Z,29.10
2022-08-07T11:32:11.482Z,29.30
2022-08-07T11:34:42.556Z,29.60
2022-08-07T11:37:13.990Z,30.00
2022-08-07T11:40:02.005Z,30.20
2022-08-07T11:42:37.949Z,30.50
2022-08-07T11:45:14.063Z,30.90
2022-08-07T11:47:56.311Z,31.10
2022-08-07T11:50:33.541Z,30.40
2022-08-07T11:53:10.935Z,29.60
2022-08-07T11:56:09.481Z,29.40
2022-08-07T11:58:45.699Z,29.70
2022-08-07T12:01:27.225Z,30.30
2022-08-07T12:04:23.797Z,30.20
2022-08-07T12:07:01.055Z,30.10
2022-08-07T12:09:35.960Z,29.90
2022-08-07T12:12:11.606Z,29.80
2022-08-07T12:14:45.096Z,30.10
2022-08-07T12:17:25.549Z,29.80
2022-08-07T12:19:56.498Z,30.10
2022-08-07T12:22:46.967Z,30.50
2022-08-07T12:26:03.215Z,30.40
2022-08-07T12:28:45.184Z,30.40
2022-08-07T12:31:23.689Z,29.80
2022-08-07T12:34:00.846Z,30.60
2022-08-07T12:36:33.451Z,31.10
2022-08-07T12:39:03.275Z,31.20
2022-08-07T12:41:49.583Z,30.50
2022-08-07T12:44:21.516Z,30.30
2022-08-07T12:46:58.635Z,31.00
2022-08-07T12:49:44.791Z,31.30
2022-08-07T12:52:19.155Z,31.70
2022-08-07T12:54:54.328Z,31.90
2022-08-07T12:57:26.079Z,31.70
2022-08-07T13:00:12.820Z,31.60
2022-08-07T13:03:06.892Z,31.80
2022-08-07T13:06:04.013Z,32.30
2022-08-07T13:08:37.542Z,32.90
2022-08-07T13:11:16.228Z,32.70
2022-08-07T13:13:53.807Z,32.80
2022-08-07T13:16:30.426Z,33.30
2022-08-07T13:19:01.914Z,33.40
2022-08-07T13:21:50.539Z,32.60
2022-08-07T13:24:25.752Z,32.00
2022-08-07T13:26:58.603Z,31.40
2022-08-07T13:29:35.066Z,31.60
2022-08-07T13:32:31.224Z,32.10
2022-08-07T13:34:57.596Z,32.10
2022-08-07T13:37:29.539Z,32.20
2022-08-07T13:40:36.188Z,31.90
2022-08-07T13:42:52.194Z,31.70
2022-08-07T13:46:11.142Z,32.00
2022-08-07T13:48:20.678Z,32.10
2022-08-07T13:51:01.427Z,32.60
2022-08-07T13:53:35.910Z,33.10
2022-08-07T13:56:20.103Z,33.20
2022-08-07T13:59:05.783Z,33.20
2022-08-07T14:01:51.471Z,33.00
2022-08-07T14:04:36.106Z,33.10
2022-08-07T14:07:09.450Z,33.50
2022-08-07T14:10:01.325Z,33.10
2022-08-07T14:12:31.953Z,32.70
2022-08-07T14:15:05.778Z,32.40
2022-08-07T14:18:27.367Z,32.20
2022-08-07T14:20:40.898Z,32.10
2022-08-07T14:23:31.490Z,32.00
2022-08-07T14:26:09.000Z,31.70
2022-08-07T14:29:04.314Z,32.30
2022-08-07T14:31:42.805Z,32.80
2022-08-07T14:34:27.204Z,33.20
2022-08-07T14:36:59.386Z,33.40
2022-08-07T14:40:16.870Z,33.70
2022-08-07T14:42:23.539Z,33.50
2022-08-07T14:44:53.927Z,33.70
2022-08-07T14:47:32.081Z,34.20
2022-08-07T14:50:06.000Z,34.40
2022-08-07T14:52:40.865Z,33.60
2022-08-07T14:55:10.892Z,33.10
2022-08-07T14:57:55.151Z,33.10
2022-08-07T15:00:29.821Z,32.50
2022-08-07T15:02:59.134Z,32.20
2022-08-07T15:08:22.996Z,31.80
2022-08-07T15:11:02.588Z,31.70
2022-08-07T15:13:35.883Z,32.20
2022-08-07T15:16:11.106Z,32.00
2022-08-07T15:18:42.118Z,31.70
2022-08-07T15:25:12.891Z,31.60
2022-08-07T15:26:56.992Z,31.70
2022-08-07T15:32:39.078Z,30.50
2022-08-07T15:35:13.315Z,30.50
2022-08-07T15:43:52.797Z,30.50
2022-08-07T15:46:31.506Z,30.80
2022-08-07T15:49:14.672Z,31.00
2022-08-07T15:54:27.186Z,30.80
2022-08-07T15:56:58.477Z,30.50
2022-08-07T15:59:40.032Z,30.10
2022-08-07T16:02:15.268Z,30.00
2022-08-07T16:04:44.173Z,29.70
2022-08-07T16:08:28.511Z,29.70
2022-08-07T16:10:09.627Z,29.70
2022-08-07T16:13:00.897Z,29.80
2022-08-07T16:15:42.148Z,29.50
2022-08-07T16:18:49.731Z,29.50
2022-08-07T16:22:03.227Z,28.90
2022-08-07T16:24:34.217Z,28.50
2022-08-07T16:27:18.151Z,28.20
2022-08-07T16:30:30.499Z,27.80
2022-08-07T16:34:02.826Z,27.70
2022-08-07T16:36:04.402Z,27.70
2022-08-07T16:39:00.534Z,27.50
2022-08-07T16:41:41.068Z,27.30
2022-08-07T16:44:40.356Z,27.10
2022-08-07T16:47:31.406Z,26.90
2022-08-07T16:50:35.507Z,26.70
2022-08-07T16:53:48.144Z,26.60
2022-08-07T16:56:01.151Z,26.60
2022-08-07T16:58:54.409Z,26.50
2022-08-07T17:01:41.053Z,26.50
2022-08-07T17:04:24.426Z,26.50
2022-08-07T17:07:02.926Z,26.50
2022-08-07T17:10:05.374Z,26.50
2022-08-07T17:12:34.235Z,26.40
2022-08-07T17:15:19.344Z,26.40
2022-08-07T17:17:53.428Z,26.30
2022-08-07T17:20:32.716Z,26.30
2022-08-07T17:23:02.517Z,26.20
2022-08-07T17:25:51.069Z,26.20
2022-08-07T17:28:24.000Z,26.10
2022-08-07T17:30:58.563Z,26.00
2022-08-07T17:34:09.336Z,26.00
2022-08-07T17:36:20.294Z,25.90
2022-08-07T17:38:51.684Z,25.90
2022-08-07T17:42:02.940Z,25.90
2022-08-07T17:44:33.325Z,25.90
2022-08-07T17:47:04.252Z,25.80
2022-08-07T17:49:44.820Z,25.70
2022-08-07T17:52:20.222Z,25.70
2022-08-07T17:55:04.772Z,25.60
2022-08-07T17:57:56.289Z,25.50
2022-08-07T18:00:34.358Z,25.40
2022-08-07T18:03:19.207Z,25.40
2022-08-07T18:06:03.550Z,25.40
2022-08-07T18:09:00.599Z,25.20
2022-08-07T18:12:06.676Z,25.10
2022-08-07T18:14:25.152Z,25.00
2022-08-07T18:16:57.411Z,24.90
2022-08-07T18:21:12.717Z,24.80
2022-08-07T18:22:27.137Z,24.70
2022-08-07T18:25:01.676Z,24.70
2022-08-07T18:28:00.088Z,24.60
2022-08-07T18:30:36.635Z,24.60
2022-08-07T18:33:17.102Z,24.60
2022-08-07T18:35:53.704Z,24.50
2022-08-07T18:38:56.909Z,24.40
2022-08-07T18:41:20.776Z,24.40
2022-08-07T18:43:50.679Z,24.30
2022-08-07T18:46:29.496Z,24.30
2022-08-07T18:50:31.519Z,24.30
2022-08-07T18:52:33.429Z,24.30
2022-08-07T18:54:52.637Z,24.10
2022-08-07T18:57:31.323Z,24.00
2022-08-07T19:00:04.128Z,23.90
2022-08-07T19:02:42.177Z,23.90
2022-08-07T19:05:15.731Z,23.80
2022-08-07T19:07:53.772Z,23.70
2022-08-07T19:10:31.620Z,23.70
2022-08-07T19:13:11.606Z,23.60
2022-08-07T19:16:05.403Z,23.40
2022-08-07T19:18:44.938Z,23.30
2022-08-07T19:21:47.394Z,23.30
2022-08-07T19:24:08.558Z,23.20
2022-08-07T19:27:09.361Z,23.10
2022-08-07T19:31:01.321Z,23.10
2022-08-07T19:32:27.725Z,23.00
2022-08-07T19:34:59.332Z,22.90
2022-08-07T19:37:55.486Z,22.80
2022-08-07T19:40:16.721Z,22.80
2022-08-07T19:42:59.826Z,22.70
2022-08-07T19:46:01.183Z,22.60
2022-08-07T19:48:19.059Z,22.60
2022-08-07T19:50:53.378Z,22.50
2022-08-07T19:54:33.107Z,22.40
2022-08-07T19:56:15.509Z,22.40
2022-08-07T19:58:59.226Z,22.30
2022-08-07T20:01:56.128Z,22.30
2022-08-07T20:04:31.663Z,22.20
2022-08-07T20:07:09.158Z,22.10
2022-08-07T20:10:36.615Z,22.10
2022-08-07T20:12:35.014Z,22.00
2022-08-07T20:15:04.460Z,22.00
2022-08-07T20:17:39.925Z,21.90
2022-08-07T20:20:12.434Z,21.80
2022-08-07T20:22:44.976Z,21.70
2022-08-07T20:25:19.929Z,21.70
2022-08-07T20:27:57.941Z,21.60
2022-08-07T20:30:31.004Z,21.50
2022-08-07T20:33:00.756Z,21.50
2022-08-07T20:35:34.155Z,21.40
2022-08-07T20:38:06.259Z,21.40
2022-08-07T20:40:40.577Z,21.30
2022-08-07T20:43:19.200Z,21.20
2022-08-07T20:46:28.048Z,21.20
2022-08-07T20:48:58.054Z,21.10
2022-08-07T20:51:29.455Z,21.10
2022-08-07T20:54:11.794Z,21.00
2022-08-07T20:56:46.202Z,21.00
2022-08-07T21:00:05.048Z,21.00
2022-08-07T21:02:31.397Z,20.90
2022-08-07T21:05:04.643Z,20.90
2022-08-07T21:07:39.236Z,20.90
2022-08-07T21:10:11.611Z,20.90
2022-08-07T21:12:41.214Z,20.90
2022-08-07T21:15:10.590Z,20.90
2022-08-07T21:18:20.477Z,20.80
2022-08-07T21:20:40.627Z,20.80
2022-08-07T21:23:19.208Z,20.80
2022-08-07T21:26:01.257Z,20.70
2022-08-07T21:28:48.014Z,20.70
2022-08-07T21:31:49.351Z,20.70
2022-08-07T21:34:13.305Z,20.60
2022-08-07T21:36:51.276Z,20.60
2022-08-07T21:39:47.655Z,20.60
2022-08-07T21:42:42.813Z,20.50
2022-08-07T21:46:08.908Z,20.50
2022-08-07T21:48:04.971Z,20.60
2022-08-07T21:50:36.077Z,20.50
2022-08-07T21:53:08.660Z,20.50
2022-08-07T21:55:41.444Z,20.50
2022-08-07T21:58:12.252Z,20.50
2022-08-07T22:00:51.982Z,20.40
2022-08-07T22:03:30.787Z,20.40
2022-08-07T22:06:01.471Z,20.40
2022-08-07T22:08:34.827Z,20.50
2022-08-07T22:11:05.518Z,20.40
2022-08-07T22:13:52.809Z,20.40
2022-08-07T22:16:35.820Z,20.40
2022-08-07T22:19:15.994Z,20.30
2022-08-07T22:22:05.023Z,20.30
2022-08-07T22:24:37.449Z,20.30
2022-08-07T22:27:07.517Z,20.20
2022-08-07T22:29:48.416Z,20.20
2022-08-07T22:32:21.270Z,20.20
2022-08-07T22:34:54.075Z,20.20
2022-08-07T22:37:26.555Z,20.20
2022-08-07T22:40:18.987Z,20.20
2022-08-07T22:42:49.121Z,20.20
2022-08-07T22:46:41.007Z,20.20
2022-08-07T22:48:13.581Z,20.20
2022-08-07T22:51:14.822Z,20.20
2022-08-07T22:54:05.465Z,20.10
2022-08-07T22:56:42.132Z,20.10
2022-08-07T22:59:32.865Z,20.10
2022-08-07T23:02:04.825Z,20.10
2022-08-07T23:04:57.669Z,20.00
2022-08-07T23:07:41.393Z,20.00
2022-08-07T23:10:37.748Z,20.00
2022-08-07T23:13:18.546Z,20.00
2022-08-07T23:16:07.248Z,20.00
2022-08-07T23:19:06.422Z,20.00
2022-08-07T23:21:43.317Z,20.00
2022-08-07T23:24:29.236Z,19.90
2022-08-07T23:27:02.520Z,19.90
2022-08-07T23:30:37.643Z,19.90
2022-08-07T23:34:19.766Z,19.90
2022-08-07T23:35:28.125Z,19.80
2022-08-07T23:38:36.872Z,19.70
2022-08-07T23:41:21.792Z,19.80
2022-08-07T23:44:09.079Z,19.70
2022-08-07T23:46:58.254Z,19.70
2022-08-07T23:49:49.835Z,19.70
2022-08-07T23:53:00.536Z,19.70
2022-08-07T23:55:53.698Z,19.60
2022-08-07T23:58:21.613Z,19.60
